sensor_id;sensor_type;location;lat;lon;timestamp;temperature;humidity
15535;DHT22;7869;49.264;8.596;2022-12-08T00:00:54;2.40;99.90
15535;DHT22;7869;49.264;8.596;2022-12-08T00:03:19;2.40;99.90
15535;DHT22;7869;49.264;8.596;2022-12-08T00:05:47;2.40;99.90
15535;DHT22;7869;49.264;8.596;2022-12-08T00:08:32;2.40;99.90
15535;DHT22;7869;49.264;8.596;2022-12-08T00:11:17;2.40;99.90
15535;DHT22;7869;49.264;8.596;2022-12-08T00:13:43;2.40;99.90
15535;DHT22;7869;49.264;8.596;2022-12-08T00:16:09;2.40;99.90
15535;DHT22;7869;49.264;8.596;2022-12-08T00:18:35;2.30;99.90
15535;DHT22;7869;49.264;8.596;2022-12-08T00:21:01;2.30;99.90
15535;DHT22;7869;49.264;8.596;2022-12-08T00:23:26;2.30;99.90
15535;DHT22;7869;49.264;8.596;2022-12-08T00:25:52;2.30;99.90
15535;DHT22;7869;49.264;8.596;2022-12-08T00:28:18;2.30;99.90
15535;DHT22;7869;49.264;8.596;2022-12-08T00:30:43;2.30;99.90
15535;DHT22;7869;49.264;8.596;2022-12-08T00:33:09;2.30;99.90
15535;DHT22;7869;49.264;8.596;2022-12-08T00:35:35;2.30;99.90
15535;DHT22;7869;49.264;8.596;2022-12-08T00:38:01;2.20;99.90
15535;DHT22;7869;49.264;8.596;2022-12-08T00:40:27;2.20;99.90
15535;DHT22;7869;49.264;8.596;2022-12-08T00:42:52;2.20;99.90
15535;DHT22;7869;49.264;8.596;2022-12-08T00:45:18;2.20;99.90
15535;DHT22;7869;49.264;8.596;2022-12-08T00:47:44;2.20;99.90
15535;DHT22;7869;49.264;8.596;2022-12-08T00:50:09;2.10;99.90
15535;DHT22;7869;49.264;8.596;2022-12-08T00:52:36;2.10;99.90
15535;DHT22;7869;49.264;8.596;2022-12-08T00:55:02;2.00;99.90
15535;DHT22;7869;49.264;8.596;2022-12-08T00:57:28;2.00;99.90
15535;DHT22;7869;49.264;8.596;2022-12-08T00:59:53;1.90;99.90
15535;DHT22;7869;49.264;8.596;2022-12-08T01:02:19;1.90;99.90
15535;DHT22;7869;49.264;8.596;2022-12-08T01:04:44;1.80;99.90
15535;DHT22;7869;49.264;8.596;2022-12-08T01:07:10;1.80;99.90
15535;DHT22;7869;49.264;8.596;2022-12-08T01:09:35;1.70;99.90
15535;DHT22;7869;49.264;8.596;2022-12-08T01:12:01;1.70;99.90
15535;DHT22;7869;49.264;8.596;2022-12-08T01:14:26;1.70;99.90
15535;DHT22;7869;49.264;8.596;2022-12-08T01:16:52;1.60;99.90
15535;DHT22;7869;49.264;8.596;2022-12-08T01:19:18;1.60;99.90
15535;DHT22;7869;49.264;8.596;2022-12-08T01:21:44;1.60;99.90
15535;DHT22;7869;49.264;8.596;2022-12-08T01:24:17;1.60;99.90
15535;DHT22;7869;49.264;8.596;2022-12-08T01:26:43;1.60;99.90
15535;DHT22;7869;49.264;8.596;2022-12-08T01:29:09;1.60;99.90
15535;DHT22;7869;49.264;8.596;2022-12-08T01:31:35;1.60;99.90
15535;DHT22;7869;49.264;8.596;2022-12-08T01:34:01;1.60;99.90
15535;DHT22;7869;49.264;8.596;2022-12-08T01:36:29;1.60;99.90
15535;DHT22;7869;49.264;8.596;2022-12-08T01:38:57;1.60;99.90
15535;DHT22;7869;49.264;8.596;2022-12-08T01:41:25;1.60;99.90
15535;DHT22;7869;49.264;8.596;2022-12-08T01:44:02;1.50;99.90
15535;DHT22;7869;49.264;8.596;2022-12-08T01:46:34;1.50;99.90
15535;DHT22;7869;49.264;8.596;2022-12-08T01:52:21;1.50;99.90
15535;DHT22;7869;49.264;8.596;2022-12-08T01:54:53;1.60;99.90
15535;DHT22;7869;49.264;8.596;2022-12-08T01:57:27;1.50;99.90
15535;DHT22;7869;49.264;8.596;2022-12-08T02:00:06;1.50;99.90
15535;DHT22;7869;49.264;8.596;2022-12-08T02:02:38;1.50;99.90
15535;DHT22;7869;49.264;8.596;2022-12-08T02:05:08;1.40;99.90
15535;DHT22;7869;49.264;8.596;2022-12-08T02:07:34;1.40;99.90
15535;DHT22;7869;49.264;8.596;2022-12-08T02:10:01;1.40;99.90
15535;DHT22;7869;49.264;8.596;2022-12-08T02:12:26;1.40;99.90
15535;DHT22;7869;49.264;8.596;2022-12-08T02:14:52;1.40;99.90
15535;DHT22;7869;49.264;8.596;2022-12-08T02:17:41;1.40;99.90
15535;DHT22;7869;49.264;8.596;2022-12-08T02:20:21;1.40;99.90
15535;DHT22;7869;49.264;8.596;2022-12-08T02:28:19;1.30;99.90
15535;DHT22;7869;49.264;8.596;2022-12-08T02:39:23;1.20;99.90
15535;DHT22;7869;49.264;8.596;2022-12-08T02:42:26;1.20;99.90
15535;DHT22;7869;49.264;8.596;2022-12-08T02:45:08;1.20;99.90
15535;DHT22;7869;49.264;8.596;2022-12-08T02:47:36;1.20;99.90
15535;DHT22;7869;49.264;8.596;2022-12-08T02:50:03;1.20;99.90
15535;DHT22;7869;49.264;8.596;2022-12-08T02:54:58;1.20;99.90
15535;DHT22;7869;49.264;8.596;2022-12-08T03:00:01;1.20;99.90
15535;DHT22;7869;49.264;8.596;2022-12-08T03:05:54;1.30;99.90
15535;DHT22;7869;49.264;8.596;2022-12-08T03:11:19;1.40;99.90
15535;DHT22;7869;49.264;8.596;2022-12-08T03:13:48;1.40;99.90
15535;DHT22;7869;49.264;8.596;2022-12-08T03:16:19;1.40;99.90
15535;DHT22;7869;49.264;8.596;2022-12-08T03:18:52;1.40;99.90
15535;DHT22;7869;49.264;8.596;2022-12-08T03:21:20;1.40;99.90
15535;DHT22;7869;49.264;8.596;2022-12-08T03:23:47;1.40;99.90
15535;DHT22;7869;49.264;8.596;2022-12-08T03:26:33;1.40;99.90
15535;DHT22;7869;49.264;8.596;2022-12-08T03:29:01;1.40;99.90
15535;DHT22;7869;49.264;8.596;2022-12-08T03:31:30;1.40;99.90
15535;DHT22;7869;49.264;8.596;2022-12-08T03:33:58;1.40;99.90
15535;DHT22;7869;49.264;8.596;2022-12-08T03:36:24;1.40;99.90
15535;DHT22;7869;49.264;8.596;2022-12-08T03:38:52;1.40;99.90
15535;DHT22;7869;49.264;8.596;2022-12-08T03:41:19;1.40;99.90
15535;DHT22;7869;49.264;8.596;2022-12-08T03:46:16;1.50;99.90
15535;DHT22;7869;49.264;8.596;2022-12-08T03:48:42;1.60;99.90
15535;DHT22;7869;49.264;8.596;2022-12-08T03:51:08;1.60;99.90
15535;DHT22;7869;49.264;8.596;2022-12-08T03:53:34;1.50;99.90
15535;DHT22;7869;49.264;8.596;2022-12-08T03:56:03;1.50;99.90
15535;DHT22;7869;49.264;8.596;2022-12-08T03:58:29;1.60;99.90
15535;DHT22;7869;49.264;8.596;2022-12-08T04:00:54;1.60;99.90
15535;DHT22;7869;49.264;8.596;2022-12-08T04:03:20;1.60;99.90
15535;DHT22;7869;49.264;8.596;2022-12-08T04:05:45;1.60;99.90
15535;DHT22;7869;49.264;8.596;2022-12-08T04:08:11;1.60;99.90
15535;DHT22;7869;49.264;8.596;2022-12-08T04:10:36;1.60;99.90
15535;DHT22;7869;49.264;8.596;2022-12-08T04:13:02;1.60;99.90
15535;DHT22;7869;49.264;8.596;2022-12-08T04:15:28;1.60;99.90
15535;DHT22;7869;49.264;8.596;2022-12-08T04:17:53;1.60;99.90
15535;DHT22;7869;49.264;8.596;2022-12-08T04:20:19;1.60;99.90
15535;DHT22;7869;49.264;8.596;2022-12-08T04:22:44;1.60;99.90
15535;DHT22;7869;49.264;8.596;2022-12-08T04:25:10;1.60;99.90
15535;DHT22;7869;49.264;8.596;2022-12-08T04:27:35;1.60;99.90
15535;DHT22;7869;49.264;8.596;2022-12-08T04:30:01;1.60;99.90
15535;DHT22;7869;49.264;8.596;2022-12-08T04:32:26;1.60;99.90
15535;DHT22;7869;49.264;8.596;2022-12-08T04:34:52;1.70;99.90
15535;DHT22;7869;49.264;8.596;2022-12-08T04:37:17;1.70;99.90
15535;DHT22;7869;49.264;8.596;2022-12-08T04:39:43;1.70;99.90
15535;DHT22;7869;49.264;8.596;2022-12-08T04:42:08;1.70;99.90
15535;DHT22;7869;49.264;8.596;2022-12-08T04:44:34;1.70;99.90
15535;DHT22;7869;49.264;8.596;2022-12-08T04:46:59;1.70;99.90
15535;DHT22;7869;49.264;8.596;2022-12-08T04:49:25;1.70;99.90
15535;DHT22;7869;49.264;8.596;2022-12-08T04:51:50;1.70;99.90
15535;DHT22;7869;49.264;8.596;2022-12-08T04:54:16;1.80;99.90
15535;DHT22;7869;49.264;8.596;2022-12-08T04:56:41;1.80;99.90
15535;DHT22;7869;49.264;8.596;2022-12-08T04:59:07;1.80;99.90
15535;DHT22;7869;49.264;8.596;2022-12-08T05:01:33;1.80;99.90
15535;DHT22;7869;49.264;8.596;2022-12-08T05:03:58;1.80;99.90
15535;DHT22;7869;49.264;8.596;2022-12-08T05:06:24;1.80;99.90
15535;DHT22;7869;49.264;8.596;2022-12-08T05:08:50;1.90;99.90
15535;DHT22;7869;49.264;8.596;2022-12-08T05:11:15;1.90;99.90
15535;DHT22;7869;49.264;8.596;2022-12-08T05:13:41;1.90;99.90
15535;DHT22;7869;49.264;8.596;2022-12-08T05:16:09;1.80;99.90
15535;DHT22;7869;49.264;8.596;2022-12-08T05:18:35;1.80;99.90
15535;DHT22;7869;49.264;8.596;2022-12-08T05:21:02;1.80;99.90
15535;DHT22;7869;49.264;8.596;2022-12-08T05:23:28;1.90;99.90
15535;DHT22;7869;49.264;8.596;2022-12-08T05:25:53;1.90;99.90
15535;DHT22;7869;49.264;8.596;2022-12-08T05:28:19;1.90;99.90
15535;DHT22;7869;49.264;8.596;2022-12-08T05:30:44;1.90;99.90
15535;DHT22;7869;49.264;8.596;2022-12-08T05:33:10;1.90;99.90
15535;DHT22;7869;49.264;8.596;2022-12-08T05:35:36;1.90;99.90
15535;DHT22;7869;49.264;8.596;2022-12-08T05:38:01;1.90;99.90
15535;DHT22;7869;49.264;8.596;2022-12-08T05:40:27;1.90;99.90
15535;DHT22;7869;49.264;8.596;2022-12-08T05:42:52;2.00;99.90
15535;DHT22;7869;49.264;8.596;2022-12-08T05:45:18;2.10;99.90
15535;DHT22;7869;49.264;8.596;2022-12-08T05:47:43;2.10;99.90
15535;DHT22;7869;49.264;8.596;2022-12-08T05:50:09;2.10;99.90
15535;DHT22;7869;49.264;8.596;2022-12-08T05:52:35;2.20;99.90
15535;DHT22;7869;49.264;8.596;2022-12-08T05:55:01;2.20;99.90
15535;DHT22;7869;49.264;8.596;2022-12-08T05:57:26;2.20;99.90
15535;DHT22;7869;49.264;8.596;2022-12-08T05:59:52;2.20;99.90
15535;DHT22;7869;49.264;8.596;2022-12-08T06:02:18;2.20;99.90
15535;DHT22;7869;49.264;8.596;2022-12-08T06:04:43;2.20;99.90
15535;DHT22;7869;49.264;8.596;2022-12-08T06:07:09;2.30;99.90
15535;DHT22;7869;49.264;8.596;2022-12-08T06:09:34;2.30;99.90
15535;DHT22;7869;49.264;8.596;2022-12-08T06:12:00;2.30;99.90
15535;DHT22;7869;49.264;8.596;2022-12-08T06:14:26;2.20;99.90
15535;DHT22;7869;49.264;8.596;2022-12-08T06:16:52;2.30;99.90
15535;DHT22;7869;49.264;8.596;2022-12-08T06:19:18;2.30;99.90
15535;DHT22;7869;49.264;8.596;2022-12-08T06:21:44;2.30;99.90
15535;DHT22;7869;49.264;8.596;2022-12-08T06:24:09;2.30;99.90
15535;DHT22;7869;49.264;8.596;2022-12-08T06:26:36;2.30;99.90
15535;DHT22;7869;49.264;8.596;2022-12-08T06:29:01;2.20;99.90
15535;DHT22;7869;49.264;8.596;2022-12-08T06:31:27;2.20;99.90
15535;DHT22;7869;49.264;8.596;2022-12-08T06:33:53;2.20;99.90
15535;DHT22;7869;49.264;8.596;2022-12-08T06:36:21;2.20;99.90
15535;DHT22;7869;49.264;8.596;2022-12-08T06:38:48;2.20;99.90
15535;DHT22;7869;49.264;8.596;2022-12-08T06:41:13;2.20;99.90
15535;DHT22;7869;49.264;8.596;2022-12-08T06:43:40;2.20;99.90
15535;DHT22;7869;49.264;8.596;2022-12-08T06:46:08;2.20;99.90
15535;DHT22;7869;49.264;8.596;2022-12-08T06:48:34;2.20;99.90
15535;DHT22;7869;49.264;8.596;2022-12-08T06:53:36;2.10;99.90
15535;DHT22;7869;49.264;8.596;2022-12-08T06:56:02;2.10;99.90
15535;DHT22;7869;49.264;8.596;2022-12-08T06:58:27;2.10;99.90
15535;DHT22;7869;49.264;8.596;2022-12-08T07:00:53;2.10;99.90
15535;DHT22;7869;49.264;8.596;2022-12-08T07:03:18;2.10;99.90
15535;DHT22;7869;49.264;8.596;2022-12-08T07:05:44;2.10;99.90
15535;DHT22;7869;49.264;8.596;2022-12-08T07:08:10;2.10;99.90
15535;DHT22;7869;49.264;8.596;2022-12-08T07:10:36;2.10;99.90
15535;DHT22;7869;49.264;8.596;2022-12-08T07:13:02;2.10;99.90
15535;DHT22;7869;49.264;8.596;2022-12-08T07:15:28;2.10;99.90
15535;DHT22;7869;49.264;8.596;2022-12-08T07:17:53;2.10;99.90
15535;DHT22;7869;49.264;8.596;2022-12-08T07:20:19;2.10;99.90
15535;DHT22;7869;49.264;8.596;2022-12-08T07:22:51;2.10;99.90
15535;DHT22;7869;49.264;8.596;2022-12-08T07:25:18;2.20;99.90
15535;DHT22;7869;49.264;8.596;2022-12-08T07:27:44;2.10;99.90
15535;DHT22;7869;49.264;8.596;2022-12-08T07:30:10;2.10;99.90
15535;DHT22;7869;49.264;8.596;2022-12-08T07:32:37;2.20;99.90
15535;DHT22;7869;49.264;8.596;2022-12-08T07:35:04;2.20;99.90
15535;DHT22;7869;49.264;8.596;2022-12-08T07:37:29;2.20;99.90
15535;DHT22;7869;49.264;8.596;2022-12-08T07:39:55;2.20;99.90
15535;DHT22;7869;49.264;8.596;2022-12-08T07:42:20;2.20;99.90
15535;DHT22;7869;49.264;8.596;2022-12-08T07:44:46;2.20;99.90
15535;DHT22;7869;49.264;8.596;2022-12-08T07:47:11;2.20;99.90
15535;DHT22;7869;49.264;8.596;2022-12-08T07:49:37;2.20;99.90
15535;DHT22;7869;49.264;8.596;2022-12-08T07:52:02;2.20;99.90
15535;DHT22;7869;49.264;8.596;2022-12-08T07:54:29;2.20;99.90
15535;DHT22;7869;49.264;8.596;2022-12-08T07:56:56;2.30;99.90
15535;DHT22;7869;49.264;8.596;2022-12-08T07:59:22;2.30;99.90
15535;DHT22;7869;49.264;8.596;2022-12-08T08:01:48;2.30;99.90
15535;DHT22;7869;49.264;8.596;2022-12-08T08:04:15;2.40;99.90
15535;DHT22;7869;49.264;8.596;2022-12-08T08:06:40;2.40;99.90
15535;DHT22;7869;49.264;8.596;2022-12-08T08:09:06;2.40;99.90
15535;DHT22;7869;49.264;8.596;2022-12-08T08:11:31;2.50;99.90
15535;DHT22;7869;49.264;8.596;2022-12-08T08:13:57;2.50;99.90
15535;DHT22;7869;49.264;8.596;2022-12-08T08:16:22;2.50;99.90
15535;DHT22;7869;49.264;8.596;2022-12-08T08:18:49;2.50;99.90
15535;DHT22;7869;49.264;8.596;2022-12-08T08:21:16;2.60;99.90
15535;DHT22;7869;49.264;8.596;2022-12-08T08:23:42;2.60;99.90
15535;DHT22;7869;49.264;8.596;2022-12-08T08:26:07;2.60;99.90
15535;DHT22;7869;49.264;8.596;2022-12-08T08:28:33;2.60;99.90
15535;DHT22;7869;49.264;8.596;2022-12-08T08:30:59;2.70;99.90
15535;DHT22;7869;49.264;8.596;2022-12-08T08:33:25;2.70;99.90
15535;DHT22;7869;49.264;8.596;2022-12-08T08:35:52;2.70;99.90
15535;DHT22;7869;49.264;8.596;2022-12-08T08:38:18;2.80;99.90
15535;DHT22;7869;49.264;8.596;2022-12-08T08:40:43;2.80;99.90
15535;DHT22;7869;49.264;8.596;2022-12-08T08:43:09;2.90;99.90
15535;DHT22;7869;49.264;8.596;2022-12-08T08:46:02;2.90;99.90
15535;DHT22;7869;49.264;8.596;2022-12-08T08:48:29;3.00;99.90
15535;DHT22;7869;49.264;8.596;2022-12-08T08:50:56;3.00;99.90
15535;DHT22;7869;49.264;8.596;2022-12-08T08:53:21;3.00;99.90
15535;DHT22;7869;49.264;8.596;2022-12-08T08:55:48;3.10;99.90
15535;DHT22;7869;49.264;8.596;2022-12-08T08:58:13;3.10;99.90
15535;DHT22;7869;49.264;8.596;2022-12-08T09:00:39;3.10;99.90
15535;DHT22;7869;49.264;8.596;2022-12-08T09:03:05;3.20;99.90
15535;DHT22;7869;49.264;8.596;2022-12-08T09:05:30;3.20;99.90
15535;DHT22;7869;49.264;8.596;2022-12-08T09:07:56;3.30;99.90
15535;DHT22;7869;49.264;8.596;2022-12-08T09:10:21;3.30;99.90
15535;DHT22;7869;49.264;8.596;2022-12-08T09:12:47;3.30;99.90
15535;DHT22;7869;49.264;8.596;2022-12-08T09:15:13;3.30;99.90
15535;DHT22;7869;49.264;8.596;2022-12-08T09:17:38;3.30;99.90
15535;DHT22;7869;49.264;8.596;2022-12-08T09:20:05;3.40;99.90
15535;DHT22;7869;49.264;8.596;2022-12-08T09:22:31;3.40;99.90
15535;DHT22;7869;49.264;8.596;2022-12-08T09:24:56;3.40;99.90
15535;DHT22;7869;49.264;8.596;2022-12-08T09:27:22;3.40;99.90
15535;DHT22;7869;49.264;8.596;2022-12-08T09:29:47;3.40;99.90
15535;DHT22;7869;49.264;8.596;2022-12-08T09:32:13;3.40;99.90
15535;DHT22;7869;49.264;8.596;2022-12-08T09:34:38;3.40;99.90
15535;DHT22;7869;49.264;8.596;2022-12-08T09:37:04;3.50;99.90
15535;DHT22;7869;49.264;8.596;2022-12-08T09:39:29;3.60;99.90
15535;DHT22;7869;49.264;8.596;2022-12-08T09:42:00;3.60;99.90
15535;DHT22;7869;49.264;8.596;2022-12-08T09:44:48;3.70;99.90
15535;DHT22;7869;49.264;8.596;2022-12-08T09:56:30;3.80;99.90
15535;DHT22;7869;49.264;8.596;2022-12-08T10:01:10;3.90;99.90
15535;DHT22;7869;49.264;8.596;2022-12-08T10:03:36;3.90;99.90
15535;DHT22;7869;49.264;8.596;2022-12-08T10:09:07;4.00;99.90
15535;DHT22;7869;49.264;8.596;2022-12-08T10:17:24;4.20;99.90
15535;DHT22;7869;49.264;8.596;2022-12-08T10:19:57;4.10;99.90
15535;DHT22;7869;49.264;8.596;2022-12-08T10:22:26;4.20;99.90
15535;DHT22;7869;49.264;8.596;2022-12-08T10:25:35;4.20;99.90
15535;DHT22;7869;49.264;8.596;2022-12-08T10:28:02;4.40;99.90
15535;DHT22;7869;49.264;8.596;2022-12-08T10:30:29;4.40;99.90
15535;DHT22;7869;49.264;8.596;2022-12-08T10:32:55;4.40;99.90
15535;DHT22;7869;49.264;8.596;2022-12-08T10:35:22;4.30;99.90
15535;DHT22;7869;49.264;8.596;2022-12-08T10:37:57;4.30;99.90
15535;DHT22;7869;49.264;8.596;2022-12-08T10:40:28;4.20;99.90
15535;DHT22;7869;49.264;8.596;2022-12-08T10:42:56;4.20;99.90
15535;DHT22;7869;49.264;8.596;2022-12-08T10:45:36;4.20;99.90
15535;DHT22;7869;49.264;8.596;2022-12-08T10:48:08;4.20;99.90
15535;DHT22;7869;49.264;8.596;2022-12-08T10:50:46;4.20;99.90
15535;DHT22;7869;49.264;8.596;2022-12-08T10:53:20;4.20;99.90
15535;DHT22;7869;49.264;8.596;2022-12-08T10:55:48;4.20;99.90
15535;DHT22;7869;49.264;8.596;2022-12-08T11:00:52;4.20;99.90
15535;DHT22;7869;49.264;8.596;2022-12-08T11:03:30;4.30;99.90
15535;DHT22;7869;49.264;8.596;2022-12-08T11:05:58;4.40;99.90
15535;DHT22;7869;49.264;8.596;2022-12-08T11:08:26;4.50;99.90
15535;DHT22;7869;49.264;8.596;2022-12-08T11:10:52;4.40;99.90
15535;DHT22;7869;49.264;8.596;2022-12-08T11:13:22;4.40;99.90
15535;DHT22;7869;49.264;8.596;2022-12-08T11:15:49;4.40;99.90
15535;DHT22;7869;49.264;8.596;2022-12-08T11:18:39;4.50;99.90
15535;DHT22;7869;49.264;8.596;2022-12-08T11:21:09;4.50;99.90
15535;DHT22;7869;49.264;8.596;2022-12-08T11:23:36;4.50;99.90
15535;DHT22;7869;49.264;8.596;2022-12-08T11:28:43;4.60;99.90
15535;DHT22;7869;49.264;8.596;2022-12-08T11:31:34;4.60;99.90
15535;DHT22;7869;49.264;8.596;2022-12-08T11:34:03;4.70;99.90
15535;DHT22;7869;49.264;8.596;2022-12-08T11:36:31;4.70;99.90
15535;DHT22;7869;49.264;8.596;2022-12-08T11:39:00;4.80;99.90
15535;DHT22;7869;49.264;8.596;2022-12-08T11:41:30;4.70;99.90
15535;DHT22;7869;49.264;8.596;2022-12-08T11:46:38;4.60;99.90
15535;DHT22;7869;49.264;8.596;2022-12-08T11:49:14;4.70;99.90
15535;DHT22;7869;49.264;8.596;2022-12-08T11:54:27;4.70;99.90
15535;DHT22;7869;49.264;8.596;2022-12-08T11:56:56;4.70;99.90
15535;DHT22;7869;49.264;8.596;2022-12-08T11:59:41;4.70;99.90
15535;DHT22;7869;49.264;8.596;2022-12-08T12:02:17;4.70;99.90
15535;DHT22;7869;49.264;8.596;2022-12-08T12:04:54;4.70;99.90
15535;DHT22;7869;49.264;8.596;2022-12-08T12:18:51;4.90;99.90
15535;DHT22;7869;49.264;8.596;2022-12-08T12:21:32;5.00;99.90
15535;DHT22;7869;49.264;8.596;2022-12-08T12:26:36;5.00;99.90
15535;DHT22;7869;49.264;8.596;2022-12-08T12:29:24;5.00;99.90
15535;DHT22;7869;49.264;8.596;2022-12-08T12:31:56;5.00;99.90
15535;DHT22;7869;49.264;8.596;2022-12-08T12:34:26;5.00;99.90
15535;DHT22;7869;49.264;8.596;2022-12-08T12:37:04;5.00;99.90
15535;DHT22;7869;49.264;8.596;2022-12-08T12:39:43;5.10;99.90
15535;DHT22;7869;49.264;8.596;2022-12-08T12:55:59;5.10;99.90
15535;DHT22;7869;49.264;8.596;2022-12-08T13:04:01;5.20;99.90
15535;DHT22;7869;49.264;8.596;2022-12-08T13:06:46;5.20;99.90
15535;DHT22;7869;49.264;8.596;2022-12-08T13:09:41;5.20;99.90
15535;DHT22;7869;49.264;8.596;2022-12-08T13:12:11;5.20;99.90
15535;DHT22;7869;49.264;8.596;2022-12-08T13:14:45;5.20;99.90
15535;DHT22;7869;49.264;8.596;2022-12-08T13:17:17;5.30;99.90
15535;DHT22;7869;49.264;8.596;2022-12-08T13:19:48;5.40;99.90
15535;DHT22;7869;49.264;8.596;2022-12-08T13:33:22;5.20;99.90
15535;DHT22;7869;49.264;8.596;2022-12-08T13:38:29;5.10;99.90
15535;DHT22;7869;49.264;8.596;2022-12-08T13:40:56;5.20;99.90
15535;DHT22;7869;49.264;8.596;2022-12-08T13:46:08;5.20;99.90
15535;DHT22;7869;49.264;8.596;2022-12-08T13:48:49;5.30;99.90
15535;DHT22;7869;49.264;8.596;2022-12-08T13:51:31;5.30;99.90
15535;DHT22;7869;49.264;8.596;2022-12-08T13:54:27;5.40;99.90
15535;DHT22;7869;49.264;8.596;2022-12-08T13:56:55;5.30;99.90
15535;DHT22;7869;49.264;8.596;2022-12-08T13:59:28;5.20;99.90
15535;DHT22;7869;49.264;8.596;2022-12-08T14:02:03;5.10;99.90
15535;DHT22;7869;49.264;8.596;2022-12-08T14:04:33;5.10;99.90
15535;DHT22;7869;49.264;8.596;2022-12-08T14:07:00;5.00;99.90
15535;DHT22;7869;49.264;8.596;2022-12-08T14:09:31;4.90;99.90
15535;DHT22;7869;49.264;8.596;2022-12-08T14:12:04;4.80;99.90
15535;DHT22;7869;49.264;8.596;2022-12-08T14:14:44;4.70;99.90
15535;DHT22;7869;49.264;8.596;2022-12-08T14:17:17;4.60;99.90
15535;DHT22;7869;49.264;8.596;2022-12-08T14:19:51;4.50;99.90
15535;DHT22;7869;49.264;8.596;2022-12-08T14:22:17;4.50;99.90
15535;DHT22;7869;49.264;8.596;2022-12-08T14:24:44;4.40;99.90
15535;DHT22;7869;49.264;8.596;2022-12-08T14:27:14;4.40;99.90
15535;DHT22;7869;49.264;8.596;2022-12-08T14:29:44;4.40;99.90
15535;DHT22;7869;49.264;8.596;2022-12-08T14:37:33;4.30;99.90
15535;DHT22;7869;49.264;8.596;2022-12-08T14:40:03;4.30;99.90
15535;DHT22;7869;49.264;8.596;2022-12-08T14:42:29;4.30;99.90
15535;DHT22;7869;49.264;8.596;2022-12-08T14:45:01;4.20;99.90
15535;DHT22;7869;49.264;8.596;2022-12-08T14:47:29;4.20;99.90
15535;DHT22;7869;49.264;8.596;2022-12-08T14:49:56;4.30;99.90
15535;DHT22;7869;49.264;8.596;2022-12-08T14:52:23;4.30;99.90
15535;DHT22;7869;49.264;8.596;2022-12-08T14:54:50;4.20;99.90
15535;DHT22;7869;49.264;8.596;2022-12-08T14:57:16;4.20;99.90
15535;DHT22;7869;49.264;8.596;2022-12-08T14:59:43;4.20;99.90
15535;DHT22;7869;49.264;8.596;2022-12-08T15:02:30;4.20;99.90
15535;DHT22;7869;49.264;8.596;2022-12-08T15:05:17;4.10;99.90
15535;DHT22;7869;49.264;8.596;2022-12-08T15:07:51;4.10;99.90
15535;DHT22;7869;49.264;8.596;2022-12-08T15:10:21;4.10;99.90
15535;DHT22;7869;49.264;8.596;2022-12-08T15:15:22;4.00;99.90
15535;DHT22;7869;49.264;8.596;2022-12-08T15:18:59;4.00;99.90
15535;DHT22;7869;49.264;8.596;2022-12-08T15:20:54;4.00;99.90
15535;DHT22;7869;49.264;8.596;2022-12-08T15:23:43;4.00;99.90
15535;DHT22;7869;49.264;8.596;2022-12-08T15:26:21;4.00;99.90
15535;DHT22;7869;49.264;8.596;2022-12-08T15:28:46;3.90;99.90
15535;DHT22;7869;49.264;8.596;2022-12-08T15:31:12;3.90;99.90
15535;DHT22;7869;49.264;8.596;2022-12-08T15:33:38;3.90;99.90
15535;DHT22;7869;49.264;8.596;2022-12-08T15:36:03;3.90;99.90
15535;DHT22;7869;49.264;8.596;2022-12-08T15:38:29;3.80;99.90
15535;DHT22;7869;49.264;8.596;2022-12-08T15:40:56;3.80;99.90
15535;DHT22;7869;49.264;8.596;2022-12-08T15:43:23;3.80;99.90
15535;DHT22;7869;49.264;8.596;2022-12-08T15:45:49;3.80;99.90
15535;DHT22;7869;49.264;8.596;2022-12-08T15:48:20;3.80;99.90
15535;DHT22;7869;49.264;8.596;2022-12-08T15:50:47;3.80;99.90
15535;DHT22;7869;49.264;8.596;2022-12-08T15:53:13;3.70;99.90
15535;DHT22;7869;49.264;8.596;2022-12-08T15:55:39;3.70;99.90
15535;DHT22;7869;49.264;8.596;2022-12-08T15:58:05;3.70;99.90
15535;DHT22;7869;49.264;8.596;2022-12-08T16:00:34;3.60;99.90
15535;DHT22;7869;49.264;8.596;2022-12-08T16:03:00;3.60;99.90
15535;DHT22;7869;49.264;8.596;2022-12-08T16:05:30;3.60;99.90
15535;DHT22;7869;49.264;8.596;2022-12-08T16:07:56;3.60;99.90
15535;DHT22;7869;49.264;8.596;2022-12-08T16:10:23;3.60;99.90
15535;DHT22;7869;49.264;8.596;2022-12-08T16:12:50;3.60;99.90
15535;DHT22;7869;49.264;8.596;2022-12-08T16:15:39;3.60;99.90
15535;DHT22;7869;49.264;8.596;2022-12-08T16:18:05;3.50;99.90
15535;DHT22;7869;49.264;8.596;2022-12-08T16:20:32;3.50;99.90
15535;DHT22;7869;49.264;8.596;2022-12-08T16:22:57;3.50;99.90
15535;DHT22;7869;49.264;8.596;2022-12-08T16:25:23;3.50;99.90
15535;DHT22;7869;49.264;8.596;2022-12-08T16:27:52;3.50;99.90
15535;DHT22;7869;49.264;8.596;2022-12-08T16:30:18;3.40;99.90
15535;DHT22;7869;49.264;8.596;2022-12-08T16:32:44;3.40;99.90
15535;DHT22;7869;49.264;8.596;2022-12-08T16:35:11;3.40;99.90
15535;DHT22;7869;49.264;8.596;2022-12-08T16:37:37;3.40;99.90
15535;DHT22;7869;49.264;8.596;2022-12-08T16:40:04;3.40;99.90
15535;DHT22;7869;49.264;8.596;2022-12-08T16:42:31;3.40;99.90
15535;DHT22;7869;49.264;8.596;2022-12-08T16:45:16;3.40;99.90
15535;DHT22;7869;49.264;8.596;2022-12-08T16:47:45;3.40;99.90
15535;DHT22;7869;49.264;8.596;2022-12-08T16:50:14;3.40;99.90
15535;DHT22;7869;49.264;8.596;2022-12-08T16:52:39;3.40;99.90
15535;DHT22;7869;49.264;8.596;2022-12-08T16:55:14;3.40;99.90
15535;DHT22;7869;49.264;8.596;2022-12-08T16:57:40;3.40;99.90
15535;DHT22;7869;49.264;8.596;2022-12-08T17:00:08;3.40;99.90
15535;DHT22;7869;49.264;8.596;2022-12-08T17:02:35;3.40;99.90
15535;DHT22;7869;49.264;8.596;2022-12-08T17:05:01;3.40;99.90
15535;DHT22;7869;49.264;8.596;2022-12-08T17:07:27;3.40;99.90
15535;DHT22;7869;49.264;8.596;2022-12-08T17:09:52;3.40;99.90
15535;DHT22;7869;49.264;8.596;2022-12-08T17:12:18;3.30;99.90
15535;DHT22;7869;49.264;8.596;2022-12-08T17:14:43;3.30;99.90
15535;DHT22;7869;49.264;8.596;2022-12-08T17:17:09;3.30;99.90
15535;DHT22;7869;49.264;8.596;2022-12-08T17:19:35;3.30;99.90
15535;DHT22;7869;49.264;8.596;2022-12-08T17:22:00;3.30;99.90
15535;DHT22;7869;49.264;8.596;2022-12-08T17:24:27;3.30;99.90
15535;DHT22;7869;49.264;8.596;2022-12-08T17:26:54;3.30;99.90
15535;DHT22;7869;49.264;8.596;2022-12-08T17:29:20;3.30;99.90
15535;DHT22;7869;49.264;8.596;2022-12-08T17:31:46;3.30;99.90
15535;DHT22;7869;49.264;8.596;2022-12-08T17:34:11;3.30;99.90
15535;DHT22;7869;49.264;8.596;2022-12-08T17:36:37;3.20;99.90
15535;DHT22;7869;49.264;8.596;2022-12-08T17:39:03;3.20;99.90
15535;DHT22;7869;49.264;8.596;2022-12-08T17:41:29;3.20;99.90
15535;DHT22;7869;49.264;8.596;2022-12-08T17:43:55;3.20;99.90
15535;DHT22;7869;49.264;8.596;2022-12-08T17:46:21;3.20;99.90
15535;DHT22;7869;49.264;8.596;2022-12-08T17:48:47;3.20;99.90
15535;DHT22;7869;49.264;8.596;2022-12-08T17:51:13;3.20;99.90
15535;DHT22;7869;49.264;8.596;2022-12-08T17:53:40;3.20;99.90
15535;DHT22;7869;49.264;8.596;2022-12-08T17:56:14;3.20;99.90
15535;DHT22;7869;49.264;8.596;2022-12-08T17:58:40;3.20;99.90
15535;DHT22;7869;49.264;8.596;2022-12-08T18:01:09;3.20;99.90
15535;DHT22;7869;49.264;8.596;2022-12-08T18:03:35;3.20;99.90
15535;DHT22;7869;49.264;8.596;2022-12-08T18:06:09;3.20;99.90
15535;DHT22;7869;49.264;8.596;2022-12-08T18:08:35;3.20;99.90
15535;DHT22;7869;49.264;8.596;2022-12-08T18:11:02;3.20;99.90
15535;DHT22;7869;49.264;8.596;2022-12-08T18:13:28;3.20;99.90